This is the latest recevied weather packets stored in our database for station/object WX5KDM. If no packets are shown the sender has not sent any weather packets the latest 10 day(s).
| Time | Temp. | Humidity | Pressure | Rain* | Wind** | Luminosity | Snow |
|---|---|---|---|---|---|---|---|
| 1787852973 | 30.56° C | 69% | 1016.1 hPa | 0 mm | - | - | - |
| 1787852667 | 30.56° C | 70% | 1016.4 hPa | 0 mm | - | - | - |
| 1787852367 | 29.44° C | 73% | 1016.2 hPa | 0 mm | - | - | - |
| 1787852060 | 30° C | 71% | 1016.3 hPa | 0 mm | - | - | - |
| 1787851754 | 29.44° C | 73% | 1016.3 hPa | 0 mm | - | - | - |
| 1787851449 | 28.89° C | 75% | 1016.2 hPa | 0 mm | - | - | - |
| 1787851144 | 28.89° C | 77% | 1016.5 hPa | 0 mm | - | - | - |
| 1787850839 | 28.33° C | 79% | 1016.4 hPa | 0 mm | - | - | - |
| 1787850535 | 28.89° C | 77% | 1016.5 hPa | 0 mm | - | - | - |
| 1787850230 | 28.33° C | 77% | 1016.5 hPa | 0 mm | - | - | - |
| 1787849924 | 27.78° C | 80% | 1016.5 hPa | 0 mm | - | - | - |
| 1787849620 | 27.78° C | 79% | 1016.8 hPa | 0 mm | - | - | - |
| 1787849319 | 28.33° C | 78% | 1017 hPa | 0 mm | - | - | - |
| 1787849019 | 27.78° C | 78% | 1017.2 hPa | 0 mm | - | - | - |
| 1787848713 | 27.22° C | 79% | 1017.4 hPa | 0 mm | - | - | - |
| 1787848409 | 26.67° C | 81% | 1017.3 hPa | 0 mm | - | - | - |
| 1787848108 | 26.67° C | 82% | 1017.3 hPa | 0 mm | - | - | - |
| 1787847808 | 26.67° C | 82% | 1017.3 hPa | 0 mm | - | - | - |
| 1787847504 | 26.67° C | 82% | 1017.1 hPa | 0 mm | - | - | - |
| 1787847199 | 27.22° C | 80% | 1017.2 hPa | 0 mm | - | - | - |
| 1787846896 | 26.67° C | 83% | 1017.2 hPa | 0 mm | - | - | - |
| 1787846595 | 26.67° C | 83% | 1017.2 hPa | 0 mm | - | - | - |
| 1787846290 | 26.67° C | 81% | 1017.2 hPa | 0 mm | - | - | - |
| 1787845986 | 26.67° C | 83% | 1017.3 hPa | 0 mm | - | - | - |
| 1787845682 | 26.67° C | 83% | 1017.3 hPa | 0 mm | - | - | - |
* Rain latest hour (hover to see other rain measurements)
** Current wind speed in m/s (hover to see current wind gust speed)